Terminal Aerodrome Forecast
Issued by NWS Sterling, VA

Home | Current Version | Previous Version | Text Only | Print | Product List | Glossary On
Versions: 1 2 3 4 5 6 7 8 9 10 11 12 13 14 15 16 17 18 19 20 21 22 23
000
FTUS41 KLWX 282335
TAFBWI
TAF
KBWI 282335Z 0100/0206 13004KT P6SM SCT100
     FM010300 00000KT P6SM BKN080
     FM011300 VRB03KT 5SM -SN BR BKN035 OVC060
     FM011600 17005KT 3SM -FZRASNPL BR SCT008 OVC030
     FM012100 17005KT 3SM -FZRA BR BKN010 OVC020
     FM020000 17006KT P6SM SCT010 OVC020
     FM020400 23005KT P6SM SCT020 OVC035=

USA.gov is the U.S. government's official web portal to all federal, state and local government web resources and services.